sensor_id;sensor_type;location;lat;lon;timestamp;temperature;humidity
563;DHT22;266;49.514;8.294;2023-03-16T00:01:03;0.90;99.90
563;DHT22;266;49.514;8.294;2023-03-16T00:03:31;0.80;99.90
563;DHT22;266;49.514;8.294;2023-03-16T00:06:01;0.80;99.90
563;DHT22;266;49.514;8.294;2023-03-16T00:08:29;0.70;99.90
563;DHT22;266;49.514;8.294;2023-03-16T00:10:57;0.60;99.90
563;DHT22;266;49.514;8.294;2023-03-16T00:13:25;0.70;99.90
563;DHT22;266;49.514;8.294;2023-03-16T00:15:54;0.60;99.90
563;DHT22;266;49.514;8.294;2023-03-16T00:18:24;0.60;99.90
563;DHT22;266;49.514;8.294;2023-03-16T00:20:54;0.60;99.90
563;DHT22;266;49.514;8.294;2023-03-16T00:23:25;0.50;99.90
563;DHT22;266;49.514;8.294;2023-03-16T00:25:54;0.50;99.90
563;DHT22;266;49.514;8.294;2023-03-16T00:28:22;0.50;99.90
563;DHT22;266;49.514;8.294;2023-03-16T00:30:50;0.50;99.90
563;DHT22;266;49.514;8.294;2023-03-16T00:33:18;0.40;99.90
563;DHT22;266;49.514;8.294;2023-03-16T00:35:47;0.40;99.90
563;DHT22;266;49.514;8.294;2023-03-16T00:38:18;0.30;99.90
563;DHT22;266;49.514;8.294;2023-03-16T00:40:48;0.20;99.90
563;DHT22;266;49.514;8.294;2023-03-16T00:43:17;0.20;99.90
563;DHT22;266;49.514;8.294;2023-03-16T00:45:45;0.10;99.90
563;DHT22;266;49.514;8.294;2023-03-16T00:48:13;0.00;99.90
563;DHT22;266;49.514;8.294;2023-03-16T00:50:42;0.00;99.90
563;DHT22;266;49.514;8.294;2023-03-16T00:53:09;0.00;99.90
563;DHT22;266;49.514;8.294;2023-03-16T00:55:37;0.00;99.90
563;DHT22;266;49.514;8.294;2023-03-16T00:58:06;0.00;99.90
563;DHT22;266;49.514;8.294;2023-03-16T01:00:35;0.00;99.90
563;DHT22;266;49.514;8.294;2023-03-16T01:03:03;0.00;99.90
563;DHT22;266;49.514;8.294;2023-03-16T01:05:31;0.00;99.90
563;DHT22;266;49.514;8.294;2023-03-16T01:07:59;-0.10;99.90
563;DHT22;266;49.514;8.294;2023-03-16T01:10:28;-0.20;99.90
563;DHT22;266;49.514;8.294;2023-03-16T01:12:56;-0.20;99.90
563;DHT22;266;49.514;8.294;2023-03-16T01:15:25;-0.20;99.90
563;DHT22;266;49.514;8.294;2023-03-16T01:17:53;-0.30;99.90
563;DHT22;266;49.514;8.294;2023-03-16T01:20:22;-0.30;99.90
563;DHT22;266;49.514;8.294;2023-03-16T01:22:50;-0.40;99.90
563;DHT22;266;49.514;8.294;2023-03-16T01:25:18;-0.40;99.90
563;DHT22;266;49.514;8.294;2023-03-16T01:27:46;-0.40;99.90
563;DHT22;266;49.514;8.294;2023-03-16T01:30:14;-0.40;99.90
563;DHT22;266;49.514;8.294;2023-03-16T01:32:44;-0.40;99.90
563;DHT22;266;49.514;8.294;2023-03-16T01:35:12;-0.40;99.90
563;DHT22;266;49.514;8.294;2023-03-16T01:37:40;-0.40;99.90
563;DHT22;266;49.514;8.294;2023-03-16T01:40:09;-0.50;99.90
563;DHT22;266;49.514;8.294;2023-03-16T01:42:44;-0.40;99.90
563;DHT22;266;49.514;8.294;2023-03-16T01:48:21;-0.40;99.90
563;DHT22;266;49.514;8.294;2023-03-16T01:50:51;-0.30;99.90
563;DHT22;266;49.514;8.294;2023-03-16T01:53:20;-0.40;99.90
563;DHT22;266;49.514;8.294;2023-03-16T01:55:50;-0.40;99.90
563;DHT22;266;49.514;8.294;2023-03-16T01:58:21;-0.30;99.90
563;DHT22;266;49.514;8.294;2023-03-16T02:00:49;-0.40;99.90
563;DHT22;266;49.514;8.294;2023-03-16T02:03:20;-0.40;99.90
563;DHT22;266;49.514;8.294;2023-03-16T02:05:51;-0.50;99.90
563;DHT22;266;49.514;8.294;2023-03-16T02:08:21;-0.50;99.90
563;DHT22;266;49.514;8.294;2023-03-16T02:10:49;-0.50;99.90
563;DHT22;266;49.514;8.294;2023-03-16T02:13:21;-0.50;99.90
563;DHT22;266;49.514;8.294;2023-03-16T02:15:50;-0.60;99.90
563;DHT22;266;49.514;8.294;2023-03-16T02:18:20;-0.60;99.90
563;DHT22;266;49.514;8.294;2023-03-16T02:20:53;-0.70;99.90
563;DHT22;266;49.514;8.294;2023-03-16T02:23:24;-0.70;99.90
563;DHT22;266;49.514;8.294;2023-03-16T02:25:56;-0.70;99.90
563;DHT22;266;49.514;8.294;2023-03-16T02:28:31;-0.70;99.90
563;DHT22;266;49.514;8.294;2023-03-16T02:31:02;-0.70;99.90
563;DHT22;266;49.514;8.294;2023-03-16T02:33:31;-0.60;99.90
563;DHT22;266;49.514;8.294;2023-03-16T02:36:00;-0.50;99.90
563;DHT22;266;49.514;8.294;2023-03-16T02:38:28;-0.50;99.90
563;DHT22;266;49.514;8.294;2023-03-16T02:40:59;-0.60;99.90
563;DHT22;266;49.514;8.294;2023-03-16T02:43:29;-0.70;99.90
563;DHT22;266;49.514;8.294;2023-03-16T02:46:02;-0.70;99.90
563;DHT22;266;49.514;8.294;2023-03-16T02:48:35;-0.70;99.90
563;DHT22;266;49.514;8.294;2023-03-16T02:51:04;-0.60;99.90
563;DHT22;266;49.514;8.294;2023-03-16T02:53:32;-0.60;99.90
563;DHT22;266;49.514;8.294;2023-03-16T02:56:00;-0.60;99.90
563;DHT22;266;49.514;8.294;2023-03-16T02:58:29;-0.60;99.90
563;DHT22;266;49.514;8.294;2023-03-16T03:00:57;-0.60;99.90
563;DHT22;266;49.514;8.294;2023-03-16T03:03:28;-0.60;99.90
563;DHT22;266;49.514;8.294;2023-03-16T03:06:00;-0.60;99.90
563;DHT22;266;49.514;8.294;2023-03-16T03:08:28;-0.70;99.90
563;DHT22;266;49.514;8.294;2023-03-16T03:10:58;-0.70;99.90
563;DHT22;266;49.514;8.294;2023-03-16T03:13:26;-0.60;99.90
563;DHT22;266;49.514;8.294;2023-03-16T03:15:54;-0.60;99.90
563;DHT22;266;49.514;8.294;2023-03-16T03:18:22;-0.60;99.90
563;DHT22;266;49.514;8.294;2023-03-16T03:20:52;-0.60;99.90
563;DHT22;266;49.514;8.294;2023-03-16T03:23:20;-0.70;99.90
563;DHT22;266;49.514;8.294;2023-03-16T03:25:49;-0.70;99.90
563;DHT22;266;49.514;8.294;2023-03-16T03:28:17;-0.70;99.90
563;DHT22;266;49.514;8.294;2023-03-16T03:30:45;-0.70;99.90
563;DHT22;266;49.514;8.294;2023-03-16T03:33:13;-0.60;99.90
563;DHT22;266;49.514;8.294;2023-03-16T03:35:41;-0.70;99.90
563;DHT22;266;49.514;8.294;2023-03-16T03:38:10;-0.60;99.90
563;DHT22;266;49.514;8.294;2023-03-16T03:40:38;-0.60;99.90
563;DHT22;266;49.514;8.294;2023-03-16T03:43:15;-0.70;99.90
563;DHT22;266;49.514;8.294;2023-03-16T03:45:43;-0.70;99.90
563;DHT22;266;49.514;8.294;2023-03-16T03:48:11;-0.70;99.90
563;DHT22;266;49.514;8.294;2023-03-16T03:50:39;-0.80;99.90
563;DHT22;266;49.514;8.294;2023-03-16T03:53:07;-0.80;99.90
563;DHT22;266;49.514;8.294;2023-03-16T03:55:36;-0.70;99.90
563;DHT22;266;49.514;8.294;2023-03-16T03:58:04;-0.80;99.90
563;DHT22;266;49.514;8.294;2023-03-16T04:00:32;-0.80;99.90
563;DHT22;266;49.514;8.294;2023-03-16T04:03:01;-0.80;99.90
563;DHT22;266;49.514;8.294;2023-03-16T04:05:29;-0.90;99.90
563;DHT22;266;49.514;8.294;2023-03-16T04:07:57;-0.90;99.90
563;DHT22;266;49.514;8.294;2023-03-16T04:10:27;-0.90;99.90
563;DHT22;266;49.514;8.294;2023-03-16T04:12:58;-0.90;99.90
563;DHT22;266;49.514;8.294;2023-03-16T04:15:26;-0.80;99.90
563;DHT22;266;49.514;8.294;2023-03-16T04:17:54;-0.80;99.90
563;DHT22;266;49.514;8.294;2023-03-16T04:20:22;-0.80;99.90
563;DHT22;266;49.514;8.294;2023-03-16T04:22:50;-0.60;99.90
563;DHT22;266;49.514;8.294;2023-03-16T04:25:25;-0.50;99.90
563;DHT22;266;49.514;8.294;2023-03-16T04:27:54;-0.30;99.90
563;DHT22;266;49.514;8.294;2023-03-16T04:30:23;-0.20;99.90
563;DHT22;266;49.514;8.294;2023-03-16T04:32:51;-0.10;99.90
563;DHT22;266;49.514;8.294;2023-03-16T04:35:19;-0.10;99.90
563;DHT22;266;49.514;8.294;2023-03-16T04:37:47;-0.10;99.90
563;DHT22;266;49.514;8.294;2023-03-16T04:40:15;-0.10;99.90
563;DHT22;266;49.514;8.294;2023-03-16T04:42:45;-0.20;99.90
563;DHT22;266;49.514;8.294;2023-03-16T04:45:15;-0.20;99.90
563;DHT22;266;49.514;8.294;2023-03-16T04:47:45;-0.10;99.90
563;DHT22;266;49.514;8.294;2023-03-16T04:50:15;-0.20;99.90
563;DHT22;266;49.514;8.294;2023-03-16T04:52:43;-0.20;99.90
563;DHT22;266;49.514;8.294;2023-03-16T04:55:11;-0.20;99.90
563;DHT22;266;49.514;8.294;2023-03-16T04:57:39;-0.20;99.90
563;DHT22;266;49.514;8.294;2023-03-16T05:00:08;-0.20;99.90
563;DHT22;266;49.514;8.294;2023-03-16T05:02:39;-0.20;99.90
563;DHT22;266;49.514;8.294;2023-03-16T05:05:09;-0.20;99.90
563;DHT22;266;49.514;8.294;2023-03-16T05:07:37;-0.10;99.90
563;DHT22;266;49.514;8.294;2023-03-16T05:10:07;-0.20;99.90
563;DHT22;266;49.514;8.294;2023-03-16T05:12:36;-0.30;99.90
563;DHT22;266;49.514;8.294;2023-03-16T05:15:04;-0.40;99.90
563;DHT22;266;49.514;8.294;2023-03-16T05:17:33;-0.50;99.90
563;DHT22;266;49.514;8.294;2023-03-16T05:20:01;-0.50;99.90
563;DHT22;266;49.514;8.294;2023-03-16T05:22:33;-0.50;99.90
563;DHT22;266;49.514;8.294;2023-03-16T05:25:01;-0.50;99.90
563;DHT22;266;49.514;8.294;2023-03-16T05:27:31;-0.60;99.90
563;DHT22;266;49.514;8.294;2023-03-16T05:29:59;-0.50;99.90
563;DHT22;266;49.514;8.294;2023-03-16T05:32:27;-0.60;99.90
563;DHT22;266;49.514;8.294;2023-03-16T05:34:55;-0.60;99.90
563;DHT22;266;49.514;8.294;2023-03-16T05:37:24;-0.60;99.90
563;DHT22;266;49.514;8.294;2023-03-16T05:39:53;-0.60;99.90
563;DHT22;266;49.514;8.294;2023-03-16T05:42:23;-0.60;99.90
563;DHT22;266;49.514;8.294;2023-03-16T05:44:52;-0.70;99.90
563;DHT22;266;49.514;8.294;2023-03-16T05:47:20;-0.60;99.90
563;DHT22;266;49.514;8.294;2023-03-16T05:49:48;-0.50;99.90
563;DHT22;266;49.514;8.294;2023-03-16T05:52:16;-0.50;99.90
563;DHT22;266;49.514;8.294;2023-03-16T05:54:44;-0.60;99.90
563;DHT22;266;49.514;8.294;2023-03-16T05:57:13;-0.50;99.90
563;DHT22;266;49.514;8.294;2023-03-16T05:59:41;-0.50;99.90
563;DHT22;266;49.514;8.294;2023-03-16T06:02:09;-0.50;99.90
563;DHT22;266;49.514;8.294;2023-03-16T06:04:37;-0.50;99.90
563;DHT22;266;49.514;8.294;2023-03-16T06:07:06;-0.40;99.90
563;DHT22;266;49.514;8.294;2023-03-16T06:09:34;-0.40;99.90
563;DHT22;266;49.514;8.294;2023-03-16T06:12:02;-0.40;99.90
563;DHT22;266;49.514;8.294;2023-03-16T06:14:32;-0.30;99.90
563;DHT22;266;49.514;8.294;2023-03-16T06:17:00;-0.30;99.90
563;DHT22;266;49.514;8.294;2023-03-16T06:19:28;-0.40;99.90
563;DHT22;266;49.514;8.294;2023-03-16T06:21:57;-0.40;99.90
563;DHT22;266;49.514;8.294;2023-03-16T06:24:25;-0.30;99.90
563;DHT22;266;49.514;8.294;2023-03-16T06:26:53;-0.20;99.90
563;DHT22;266;49.514;8.294;2023-03-16T06:29:21;-0.20;99.90
563;DHT22;266;49.514;8.294;2023-03-16T06:31:50;-0.20;99.90
563;DHT22;266;49.514;8.294;2023-03-16T06:34:20;-0.10;99.90
563;DHT22;266;49.514;8.294;2023-03-16T06:36:48;0.10;99.90
563;DHT22;266;49.514;8.294;2023-03-16T06:39:16;0.30;99.90
563;DHT22;266;49.514;8.294;2023-03-16T06:41:44;0.40;99.90
563;DHT22;266;49.514;8.294;2023-03-16T06:44:11;0.50;99.90
563;DHT22;266;49.514;8.294;2023-03-16T06:46:39;0.60;99.90
563;DHT22;266;49.514;8.294;2023-03-16T06:49:09;0.80;99.90
563;DHT22;266;49.514;8.294;2023-03-16T06:51:37;0.90;99.90
563;DHT22;266;49.514;8.294;2023-03-16T06:54:05;1.00;99.90
563;DHT22;266;49.514;8.294;2023-03-16T06:56:33;1.20;99.90
563;DHT22;266;49.514;8.294;2023-03-16T06:59:01;1.30;99.90
563;DHT22;266;49.514;8.294;2023-03-16T07:01:29;1.30;99.90
563;DHT22;266;49.514;8.294;2023-03-16T07:03:57;1.40;99.90
563;DHT22;266;49.514;8.294;2023-03-16T07:06:26;1.50;99.90
563;DHT22;266;49.514;8.294;2023-03-16T07:08:54;1.60;99.90
563;DHT22;266;49.514;8.294;2023-03-16T07:11:22;1.60;99.90
563;DHT22;266;49.514;8.294;2023-03-16T07:13:50;1.70;99.90
563;DHT22;266;49.514;8.294;2023-03-16T07:16:18;1.70;99.90
563;DHT22;266;49.514;8.294;2023-03-16T07:18:46;1.80;99.90
563;DHT22;266;49.514;8.294;2023-03-16T07:21:14;1.90;99.90
563;DHT22;266;49.514;8.294;2023-03-16T07:23:44;1.90;99.90
563;DHT22;266;49.514;8.294;2023-03-16T07:26:11;2.00;99.90
563;DHT22;266;49.514;8.294;2023-03-16T07:28:40;2.20;99.90
563;DHT22;266;49.514;8.294;2023-03-16T07:31:08;2.30;99.90
563;DHT22;266;49.514;8.294;2023-03-16T07:33:36;2.40;99.90
563;DHT22;266;49.514;8.294;2023-03-16T07:36:04;2.60;99.90
563;DHT22;266;49.514;8.294;2023-03-16T07:38:32;2.70;99.90
563;DHT22;266;49.514;8.294;2023-03-16T07:41:01;3.00;99.90
563;DHT22;266;49.514;8.294;2023-03-16T07:43:29;3.40;99.90
563;DHT22;266;49.514;8.294;2023-03-16T07:45:57;3.80;99.90
563;DHT22;266;49.514;8.294;2023-03-16T07:48:25;4.40;99.90
563;DHT22;266;49.514;8.294;2023-03-16T07:50:53;4.70;99.90
563;DHT22;266;49.514;8.294;2023-03-16T07:53:21;4.90;99.90
563;DHT22;266;49.514;8.294;2023-03-16T07:55:49;5.00;99.90
563;DHT22;266;49.514;8.294;2023-03-16T07:58:18;5.20;99.90
563;DHT22;266;49.514;8.294;2023-03-16T08:00:47;5.20;99.90
563;DHT22;266;49.514;8.294;2023-03-16T08:03:15;5.20;99.90
563;DHT22;266;49.514;8.294;2023-03-16T08:05:43;5.20;99.90
563;DHT22;266;49.514;8.294;2023-03-16T08:08:11;5.60;99.90
563;DHT22;266;49.514;8.294;2023-03-16T08:10:41;5.80;99.90
563;DHT22;266;49.514;8.294;2023-03-16T08:13:09;6.10;99.90
563;DHT22;266;49.514;8.294;2023-03-16T08:15:38;6.30;99.90
563;DHT22;266;49.514;8.294;2023-03-16T08:18:06;6.50;99.90
563;DHT22;266;49.514;8.294;2023-03-16T08:20:35;6.60;99.90
563;DHT22;266;49.514;8.294;2023-03-16T08:23:03;6.50;99.90
563;DHT22;266;49.514;8.294;2023-03-16T08:25:32;6.40;99.90
563;DHT22;266;49.514;8.294;2023-03-16T08:28:00;6.50;99.90
563;DHT22;266;49.514;8.294;2023-03-16T08:30:31;6.60;99.90
563;DHT22;266;49.514;8.294;2023-03-16T08:33:01;6.60;99.90
563;DHT22;266;49.514;8.294;2023-03-16T08:35:29;6.60;99.90
563;DHT22;266;49.514;8.294;2023-03-16T08:37:57;6.50;99.90
563;DHT22;266;49.514;8.294;2023-03-16T08:40:25;6.20;99.90
563;DHT22;266;49.514;8.294;2023-03-16T08:42:55;6.30;99.90
563;DHT22;266;49.514;8.294;2023-03-16T08:45:23;6.20;99.90
563;DHT22;266;49.514;8.294;2023-03-16T08:47:52;6.50;99.90
563;DHT22;266;49.514;8.294;2023-03-16T08:50:21;6.50;99.90
563;DHT22;266;49.514;8.294;2023-03-16T08:52:49;6.70;99.90
563;DHT22;266;49.514;8.294;2023-03-16T08:55:17;6.80;99.90
563;DHT22;266;49.514;8.294;2023-03-16T08:57:45;7.00;99.90
563;DHT22;266;49.514;8.294;2023-03-16T09:00:16;7.30;99.90
563;DHT22;266;49.514;8.294;2023-03-16T09:02:46;7.70;99.90
563;DHT22;266;49.514;8.294;2023-03-16T09:05:14;7.70;99.90
563;DHT22;266;49.514;8.294;2023-03-16T09:07:45;7.70;99.90
563;DHT22;266;49.514;8.294;2023-03-16T09:10:14;7.90;99.90
563;DHT22;266;49.514;8.294;2023-03-16T09:12:43;8.00;99.90
563;DHT22;266;49.514;8.294;2023-03-16T09:15:11;8.00;99.90
563;DHT22;266;49.514;8.294;2023-03-16T09:17:40;7.90;99.90
563;DHT22;266;49.514;8.294;2023-03-16T09:20:11;7.90;99.90
563;DHT22;266;49.514;8.294;2023-03-16T09:22:53;8.00;99.90
563;DHT22;266;49.514;8.294;2023-03-16T09:25:21;8.00;99.90
563;DHT22;266;49.514;8.294;2023-03-16T09:27:50;8.00;99.90
563;DHT22;266;49.514;8.294;2023-03-16T09:30:18;8.10;99.90
563;DHT22;266;49.514;8.294;2023-03-16T09:32:46;8.10;99.90
563;DHT22;266;49.514;8.294;2023-03-16T09:35:15;8.00;99.90
563;DHT22;266;49.514;8.294;2023-03-16T09:37:43;7.80;99.90
563;DHT22;266;49.514;8.294;2023-03-16T09:40:32;7.80;99.90
563;DHT22;266;49.514;8.294;2023-03-16T09:43:17;8.00;99.90
563;DHT22;266;49.514;8.294;2023-03-16T09:45:54;8.20;99.90
563;DHT22;266;49.514;8.294;2023-03-16T09:48:26;8.20;99.90
563;DHT22;266;49.514;8.294;2023-03-16T09:50:55;8.30;99.90
563;DHT22;266;49.514;8.294;2023-03-16T09:53:27;8.40;99.90
563;DHT22;266;49.514;8.294;2023-03-16T09:56:01;8.60;99.90
563;DHT22;266;49.514;8.294;2023-03-16T09:58:31;8.90;99.90
563;DHT22;266;49.514;8.294;2023-03-16T10:01:06;9.20;99.90
563;DHT22;266;49.514;8.294;2023-03-16T10:03:52;9.20;99.90
563;DHT22;266;49.514;8.294;2023-03-16T10:06:25;9.20;99.90
563;DHT22;266;49.514;8.294;2023-03-16T10:09:00;9.40;99.90
563;DHT22;266;49.514;8.294;2023-03-16T10:11:37;9.30;99.90
563;DHT22;266;49.514;8.294;2023-03-16T10:14:11;9.30;99.90
563;DHT22;266;49.514;8.294;2023-03-16T10:16:46;9.40;99.90
563;DHT22;266;49.514;8.294;2023-03-16T10:19:17;9.40;99.90
563;DHT22;266;49.514;8.294;2023-03-16T10:21:48;9.30;99.90
563;DHT22;266;49.514;8.294;2023-03-16T10:24:25;9.40;99.90
563;DHT22;266;49.514;8.294;2023-03-16T10:26:56;9.50;99.90
563;DHT22;266;49.514;8.294;2023-03-16T10:29:30;9.30;99.90
563;DHT22;266;49.514;8.294;2023-03-16T10:32:04;9.30;99.90
563;DHT22;266;49.514;8.294;2023-03-16T10:34:35;9.40;99.90
563;DHT22;266;49.514;8.294;2023-03-16T10:37:03;9.30;99.90
563;DHT22;266;49.514;8.294;2023-03-16T10:39:35;9.20;99.90
563;DHT22;266;49.514;8.294;2023-03-16T10:42:15;9.10;99.90
563;DHT22;266;49.514;8.294;2023-03-16T10:44:44;9.20;99.90
563;DHT22;266;49.514;8.294;2023-03-16T10:47:18;9.10;99.90
563;DHT22;266;49.514;8.294;2023-03-16T10:49:46;9.10;99.90
563;DHT22;266;49.514;8.294;2023-03-16T10:52:19;9.10;99.90
563;DHT22;266;49.514;8.294;2023-03-16T10:54:53;9.10;99.90
563;DHT22;266;49.514;8.294;2023-03-16T10:57:29;9.10;99.90
563;DHT22;266;49.514;8.294;2023-03-16T11:00:04;9.00;99.90
563;DHT22;266;49.514;8.294;2023-03-16T11:02:42;8.90;99.90
563;DHT22;266;49.514;8.294;2023-03-16T11:05:18;9.00;99.90
563;DHT22;266;49.514;8.294;2023-03-16T11:07:55;9.10;99.90
563;DHT22;266;49.514;8.294;2023-03-16T11:10:28;9.20;99.90
563;DHT22;266;49.514;8.294;2023-03-16T11:13:07;9.30;99.90
563;DHT22;266;49.514;8.294;2023-03-16T11:15:39;9.30;99.90
563;DHT22;266;49.514;8.294;2023-03-16T11:18:19;9.40;99.90
563;DHT22;266;49.514;8.294;2023-03-16T11:20:49;9.50;99.90
563;DHT22;266;49.514;8.294;2023-03-16T11:23:21;9.70;99.90
563;DHT22;266;49.514;8.294;2023-03-16T11:25:53;9.70;99.90
563;DHT22;266;49.514;8.294;2023-03-16T11:28:33;9.80;99.90
563;DHT22;266;49.514;8.294;2023-03-16T11:31:10;9.80;99.90
563;DHT22;266;49.514;8.294;2023-03-16T11:33:40;9.80;99.90
563;DHT22;266;49.514;8.294;2023-03-16T11:36:27;9.70;99.90
563;DHT22;266;49.514;8.294;2023-03-16T11:39:04;9.60;99.90
563;DHT22;266;49.514;8.294;2023-03-16T11:41:46;9.70;99.90
563;DHT22;266;49.514;8.294;2023-03-16T11:44:27;9.90;99.90
563;DHT22;266;49.514;8.294;2023-03-16T11:47:05;10.10;99.90
563;DHT22;266;49.514;8.294;2023-03-16T11:49:46;10.20;99.90
563;DHT22;266;49.514;8.294;2023-03-16T11:52:28;10.20;99.90
563;DHT22;266;49.514;8.294;2023-03-16T11:55:13;10.40;99.90
563;DHT22;266;49.514;8.294;2023-03-16T11:57:51;10.60;99.90
563;DHT22;266;49.514;8.294;2023-03-16T12:00:30;10.70;99.90
563;DHT22;266;49.514;8.294;2023-03-16T12:03:25;10.90;99.90
563;DHT22;266;49.514;8.294;2023-03-16T12:05:59;11.10;99.90
563;DHT22;266;49.514;8.294;2023-03-16T12:08:57;11.10;99.90
563;DHT22;266;49.514;8.294;2023-03-16T12:11:30;11.30;99.90
563;DHT22;266;49.514;8.294;2023-03-16T12:14:10;11.40;99.90
563;DHT22;266;49.514;8.294;2023-03-16T12:16:45;11.40;99.90
563;DHT22;266;49.514;8.294;2023-03-16T12:19:19;11.40;99.90
563;DHT22;266;49.514;8.294;2023-03-16T12:21:59;11.30;99.90
563;DHT22;266;49.514;8.294;2023-03-16T12:24:33;11.30;99.90
563;DHT22;266;49.514;8.294;2023-03-16T12:27:02;11.20;99.90
563;DHT22;266;49.514;8.294;2023-03-16T12:29:36;11.10;99.90
563;DHT22;266;49.514;8.294;2023-03-16T12:32:12;11.10;99.90
563;DHT22;266;49.514;8.294;2023-03-16T12:34:46;11.10;99.90
563;DHT22;266;49.514;8.294;2023-03-16T12:37:25;11.00;99.90
563;DHT22;266;49.514;8.294;2023-03-16T12:40:13;10.90;99.90
563;DHT22;266;49.514;8.294;2023-03-16T12:42:55;10.90;99.90
563;DHT22;266;49.514;8.294;2023-03-16T12:45:33;10.90;99.90
563;DHT22;266;49.514;8.294;2023-03-16T12:48:14;11.00;99.90
563;DHT22;266;49.514;8.294;2023-03-16T12:50:50;11.10;99.90
563;DHT22;266;49.514;8.294;2023-03-16T12:53:38;11.40;99.90
563;DHT22;266;49.514;8.294;2023-03-16T12:56:09;11.50;99.90
563;DHT22;266;49.514;8.294;2023-03-16T12:58:43;11.70;99.90
563;DHT22;266;49.514;8.294;2023-03-16T13:01:14;11.80;99.90
563;DHT22;266;49.514;8.294;2023-03-16T13:03:46;12.00;99.90
563;DHT22;266;49.514;8.294;2023-03-16T13:06:17;12.00;99.90
563;DHT22;266;49.514;8.294;2023-03-16T13:08:49;12.10;99.90
563;DHT22;266;49.514;8.294;2023-03-16T13:11:18;12.20;99.90
563;DHT22;266;49.514;8.294;2023-03-16T13:13:48;12.30;99.90
563;DHT22;266;49.514;8.294;2023-03-16T13:16:26;12.30;99.90
563;DHT22;266;49.514;8.294;2023-03-16T13:18:56;12.30;99.90
563;DHT22;266;49.514;8.294;2023-03-16T13:21:35;12.30;99.90
563;DHT22;266;49.514;8.294;2023-03-16T13:24:24;12.20;99.90
563;DHT22;266;49.514;8.294;2023-03-16T13:26:57;11.90;99.90
563;DHT22;266;49.514;8.294;2023-03-16T13:29:28;11.70;99.90
563;DHT22;266;49.514;8.294;2023-03-16T13:31:59;11.70;99.90
563;DHT22;266;49.514;8.294;2023-03-16T13:34:32;11.70;99.90
563;DHT22;266;49.514;8.294;2023-03-16T13:37:03;11.60;99.90
563;DHT22;266;49.514;8.294;2023-03-16T13:39:31;11.60;99.90
563;DHT22;266;49.514;8.294;2023-03-16T13:42:02;11.80;99.90
563;DHT22;266;49.514;8.294;2023-03-16T13:44:31;11.70;99.90
563;DHT22;266;49.514;8.294;2023-03-16T13:47:02;11.70;99.90
563;DHT22;266;49.514;8.294;2023-03-16T13:49:32;11.70;99.90
563;DHT22;266;49.514;8.294;2023-03-16T13:52:01;11.70;99.90
563;DHT22;266;49.514;8.294;2023-03-16T13:54:31;11.70;99.90
563;DHT22;266;49.514;8.294;2023-03-16T13:57:01;11.80;99.90
563;DHT22;266;49.514;8.294;2023-03-16T13:59:32;11.90;99.90
563;DHT22;266;49.514;8.294;2023-03-16T14:02:01;12.00;99.90
563;DHT22;266;49.514;8.294;2023-03-16T14:04:31;12.00;99.90
563;DHT22;266;49.514;8.294;2023-03-16T14:07:02;12.10;99.90
563;DHT22;266;49.514;8.294;2023-03-16T14:09:32;12.10;99.90
563;DHT22;266;49.514;8.294;2023-03-16T14:12:01;12.10;99.90
563;DHT22;266;49.514;8.294;2023-03-16T14:14:35;12.10;99.90
563;DHT22;266;49.514;8.294;2023-03-16T14:17:10;12.00;99.90
563;DHT22;266;49.514;8.294;2023-03-16T14:19:43;11.90;99.90
563;DHT22;266;49.514;8.294;2023-03-16T14:22:13;11.90;99.90
563;DHT22;266;49.514;8.294;2023-03-16T14:24:44;11.90;99.90
563;DHT22;266;49.514;8.294;2023-03-16T14:27:30;12.10;99.90
563;DHT22;266;49.514;8.294;2023-03-16T14:30:00;12.20;99.90
563;DHT22;266;49.514;8.294;2023-03-16T14:32:30;12.10;99.90
563;DHT22;266;49.514;8.294;2023-03-16T14:35:08;12.00;99.90
563;DHT22;266;49.514;8.294;2023-03-16T14:37:39;12.00;99.90
563;DHT22;266;49.514;8.294;2023-03-16T14:40:20;12.00;99.90
563;DHT22;266;49.514;8.294;2023-03-16T14:42:49;12.00;99.90
563;DHT22;266;49.514;8.294;2023-03-16T14:45:18;12.10;99.90
563;DHT22;266;49.514;8.294;2023-03-16T14:47:48;12.10;99.90
563;DHT22;266;49.514;8.294;2023-03-16T14:50:23;12.10;99.90
563;DHT22;266;49.514;8.294;2023-03-16T14:52:53;12.10;99.90
563;DHT22;266;49.514;8.294;2023-03-16T14:55:22;12.10;99.90
563;DHT22;266;49.514;8.294;2023-03-16T14:57:51;12.10;99.90
563;DHT22;266;49.514;8.294;2023-03-16T15:00:20;12.20;99.90
563;DHT22;266;49.514;8.294;2023-03-16T15:03:01;12.20;99.90
563;DHT22;266;49.514;8.294;2023-03-16T15:05:35;12.20;99.90
563;DHT22;266;49.514;8.294;2023-03-16T15:08:05;12.20;99.90
563;DHT22;266;49.514;8.294;2023-03-16T15:10:35;12.10;99.90
563;DHT22;266;49.514;8.294;2023-03-16T15:13:12;12.10;99.90
563;DHT22;266;49.514;8.294;2023-03-16T15:15:42;12.10;99.90
563;DHT22;266;49.514;8.294;2023-03-16T15:18:12;12.10;99.90
563;DHT22;266;49.514;8.294;2023-03-16T15:20:43;12.10;99.90
563;DHT22;266;49.514;8.294;2023-03-16T15:23:13;12.20;99.90
563;DHT22;266;49.514;8.294;2023-03-16T15:25:43;12.10;99.90
563;DHT22;266;49.514;8.294;2023-03-16T15:28:14;12.10;99.90
563;DHT22;266;49.514;8.294;2023-03-16T15:30:44;12.20;99.90
563;DHT22;266;49.514;8.294;2023-03-16T15:33:12;12.20;99.90
563;DHT22;266;49.514;8.294;2023-03-16T15:35:42;12.30;99.90
563;DHT22;266;49.514;8.294;2023-03-16T15:38:13;12.30;99.90
563;DHT22;266;49.514;8.294;2023-03-16T15:40:42;12.30;99.90
563;DHT22;266;49.514;8.294;2023-03-16T15:43:12;12.20;99.90
563;DHT22;266;49.514;8.294;2023-03-16T15:45:40;12.20;99.90
563;DHT22;266;49.514;8.294;2023-03-16T15:48:09;12.20;99.90
563;DHT22;266;49.514;8.294;2023-03-16T15:50:39;12.20;99.90
563;DHT22;266;49.514;8.294;2023-03-16T15:53:13;12.20;99.90
563;DHT22;266;49.514;8.294;2023-03-16T15:55:57;12.10;99.90
563;DHT22;266;49.514;8.294;2023-03-16T15:58:29;12.10;99.90
563;DHT22;266;49.514;8.294;2023-03-16T16:00:59;12.10;99.90
563;DHT22;266;49.514;8.294;2023-03-16T16:03:27;12.00;99.90
563;DHT22;266;49.514;8.294;2023-03-16T16:05:55;12.00;99.90
563;DHT22;266;49.514;8.294;2023-03-16T16:08:25;11.90;99.90
563;DHT22;266;49.514;8.294;2023-03-16T16:10:53;11.90;99.90
563;DHT22;266;49.514;8.294;2023-03-16T16:13:24;11.80;99.90
563;DHT22;266;49.514;8.294;2023-03-16T16:16:11;11.80;99.90
563;DHT22;266;49.514;8.294;2023-03-16T16:18:40;11.70;99.90
563;DHT22;266;49.514;8.294;2023-03-16T16:21:14;11.70;99.90
563;DHT22;266;49.514;8.294;2023-03-16T16:23:44;11.70;99.90
563;DHT22;266;49.514;8.294;2023-03-16T16:26:22;11.70;99.90
563;DHT22;266;49.514;8.294;2023-03-16T16:28:55;11.70;99.90
563;DHT22;266;49.514;8.294;2023-03-16T16:31:26;11.60;99.90
563;DHT22;266;49.514;8.294;2023-03-16T16:33:55;11.60;99.90
563;DHT22;266;49.514;8.294;2023-03-16T16:36:24;11.50;99.90
563;DHT22;266;49.514;8.294;2023-03-16T16:38:54;11.50;99.90
563;DHT22;266;49.514;8.294;2023-03-16T16:41:26;11.50;99.90
563;DHT22;266;49.514;8.294;2023-03-16T16:43:55;11.40;99.90
563;DHT22;266;49.514;8.294;2023-03-16T16:46:25;11.40;99.90
563;DHT22;266;49.514;8.294;2023-03-16T16:48:58;11.40;99.90
563;DHT22;266;49.514;8.294;2023-03-16T16:51:28;11.30;99.90
563;DHT22;266;49.514;8.294;2023-03-16T16:53:58;11.30;99.90
563;DHT22;266;49.514;8.294;2023-03-16T16:56:28;11.20;99.90
563;DHT22;266;49.514;8.294;2023-03-16T16:59:00;11.20;99.90
563;DHT22;266;49.514;8.294;2023-03-16T17:01:30;11.10;99.90
563;DHT22;266;49.514;8.294;2023-03-16T17:04:01;11.00;99.90
563;DHT22;266;49.514;8.294;2023-03-16T17:06:29;11.00;99.90
563;DHT22;266;49.514;8.294;2023-03-16T17:08:58;10.90;99.90